Time;durP1;ratioP1;P1;durP2;ratioP2;P2;SDS_P1;SDS_P2;PMS_P1;PMS_P2;Temp;Humidity;BMP_temperature;BMP_pressure;BME280_temperature;BME280_humidity;BME280_pressure;Samples;Min_cycle;Max_cycle;Signal;HPM_P1;HPM_P2
2022/08/25 00:02:20;;;;;;;0.40;0.40;;;;;;;21.26;62.19;100943.97;5074455;28;20060;-54
2022/08/25 00:04:46;;;;;;;0.70;0.57;;;;;;;21.15;62.54;100931.25;5073415;28;20535;-56
2022/08/25 00:07:12;;;;;;;0.88;0.60;;;;;;;21.20;62.73;100940.34;5073224;28;20507;-56
2022/08/25 00:09:38;;;;;;;0.50;0.50;;;;;;;21.08;62.81;100931.47;5055522;28;20021;-57
2022/08/25 00:12:05;;;;;;;0.60;0.60;;;;;;;21.08;63.15;100939.66;5074314;28;20067;-56
2022/08/25 00:14:35;;;;;;;0.65;0.65;;;;;;;21.03;63.20;100947.78;5073559;28;20036;-56
2022/08/25 00:17:01;;;;;;;0.85;0.50;;;;;;;20.99;63.50;100947.44;5076965;28;20460;-56
2022/08/25 00:19:32;;;;;;;0.70;0.70;;;;;;;20.97;63.71;100952.34;5060089;28;20458;-57
2022/08/25 00:21:59;;;;;;;0.60;0.60;;;;;;;20.95;63.89;100946.31;5077657;28;20036;-57
2022/08/25 00:24:26;;;;;;;2.20;0.68;;;;;;;20.93;63.52;100948.47;5078379;28;20032;-57
2022/08/25 00:26:55;;;;;;;0.63;0.55;;;;;;;20.89;63.78;100944.56;5077534;28;20044;-57
2022/08/25 00:29:24;;;;;;;1.63;0.50;;;;;;;20.88;63.68;100951.94;5079725;28;20036;-56
2022/08/25 00:31:51;;;;;;;0.70;0.68;;;;;;;20.81;64.02;100945.81;5077825;28;20024;-58
2022/08/25 00:34:21;;;;;;;2.60;0.80;;;;;;;20.80;64.21;100943.31;5077880;28;20078;-55
2022/08/25 00:36:49;;;;;;;0.88;0.60;;;;;;;20.68;64.63;100941.53;5078103;28;20039;-57
2022/08/25 00:39:15;;;;;;;0.80;0.60;;;;;;;20.57;64.47;100920.56;5077184;28;20111;-56
2022/08/25 00:41:42;;;;;;;1.30;0.80;;;;;;;20.61;64.96;100932.69;5079243;28;20083;-57
2022/08/25 00:44:11;;;;;;;4.15;0.80;;;;;;;20.51;64.42;100916.13;5078764;28;20035;-54
2022/08/25 00:46:43;;;;;;;0.55;0.50;;;;;;;20.60;64.54;100928.31;5079832;28;20025;-57
2022/08/25 00:49:16;;;;;;;0.90;0.70;;;;;;;20.45;64.61;100908.94;5078695;28;20028;-54
2022/08/25 00:51:48;;;;;;;1.05;0.90;;;;;;;20.49;65.13;100923.75;5078877;28;20028;-57
2022/08/25 00:54:19;;;;;;;4.57;1.17;;;;;;;20.45;65.06;100926.13;5078779;28;20357;-55
2022/08/25 00:56:46;;;;;;;1.63;0.80;;;;;;;20.41;64.88;100907.75;5078513;28;20068;-58
2022/08/25 00:59:13;;;;;;;1.00;0.90;;;;;;;20.42;64.89;100920.34;5077116;28;20111;-57
2022/08/25 01:01:38;;;;;;;2.78;0.82;;;;;;;20.45;64.81;100923.41;5077426;28;20146;-57
2022/08/25 01:04:06;;;;;;;1.67;1.40;;;;;;;20.42;65.86;100931.25;5077199;28;20115;-56
2022/08/25 01:06:35;;;;;;;1.67;0.90;;;;;;;20.31;65.76;100919.34;5077005;28;20527;-57
2022/08/25 01:09:01;;;;;;;1.23;1.13;;;;;;;20.39;65.85;100918.09;5076764;28;20098;-58
2022/08/25 01:11:26;;;;;;;1.48;1.38;;;;;;;20.35;65.70;100911.50;5074966;28;20064;-54
2022/08/25 01:13:55;;;;;;;1.42;1.33;;;;;;;20.44;65.63;100929.91;5058506;28;20036;-56
2022/08/25 01:16:22;;;;;;;1.30;1.20;;;;;;;20.39;65.76;100915.38;5076583;28;20021;-57
2022/08/25 01:18:52;;;;;;;1.08;1.08;;;;;;;20.48;65.42;100927.53;5058183;28;20505;-54
2022/08/25 01:21:21;;;;;;;1.30;1.20;;;;;;;20.41;66.33;100929.59;5076276;28;20032;-54
2022/08/25 01:23:48;;;;;;;1.23;1.10;;;;;;;20.37;66.23;100934.72;5074788;28;20029;-57
2022/08/25 01:26:21;;;;;;;1.67;1.55;;;;;;;20.37;66.72;100934.72;5074323;28;20094;-55
2022/08/25 01:31:36;;;;;;;1.60;1.20;;;;;;;20.34;65.96;100918.00;5061156;28;20373;-58
2022/08/25 01:34:04;;;;;;;3.55;1.80;;;;;;;20.31;66.62;100920.16;5076098;28;20108;-56
2022/08/25 01:36:30;;;;;;;1.70;1.25;;;;;;;20.31;66.08;100917.44;5075963;28;20449;-57
2022/08/25 01:38:57;;;;;;;1.50;1.40;;;;;;;20.30;66.14;100914.97;5076065;28;20457;-57
2022/08/25 01:41:49;;;;;;;2.40;2.10;;;;;;;20.29;66.67;100919.59;5074895;28;20032;-58
2022/08/25 01:44:16;;;;;;;1.52;1.27;;;;;;;20.28;66.22;100919.81;5075535;28;20064;-56
2022/08/25 01:46:42;;;;;;;1.08;1.08;;;;;;;20.08;65.97;100890.34;5057730;28;20037;-56
2022/08/25 01:49:09;;;;;;;2.40;1.98;;;;;;;20.21;66.15;100911.00;5074394;28;20036;-56
2022/08/25 01:51:45;;;;;;;1.77;1.60;;;;;;;20.22;66.34;100910.72;5075540;28;20107;-55
2022/08/25 01:54:11;;;;;;;1.63;1.40;;;;;;;20.07;66.22;100892.22;5057316;28;20457;-56
2022/08/25 01:56:37;;;;;;;1.20;1.13;;;;;;;20.13;66.63;100909.50;5075382;28;20036;-55
2022/08/25 01:59:03;;;;;;;1.60;1.50;;;;;;;20.04;66.62;100900.91;5075470;28;20035;-56
2022/08/25 02:01:29;;;;;;;1.52;1.40;;;;;;;19.99;67.21;100903.53;5058126;28;20109;-55
2022/08/25 02:03:57;;;;;;;1.52;1.42;;;;;;;19.96;67.39;100895.00;5057353;28;20476;-57
2022/08/25 02:06:28;;;;;;;1.38;1.27;;;;;;;19.99;67.49;100908.16;5075069;28;20159;-54
2022/08/25 02:08:57;;;;;;;1.60;1.45;;;;;;;19.99;67.26;100908.16;5076004;28;20028;-56
2022/08/25 02:11:24;;;;;;;1.50;1.40;;;;;;;20.01;66.94;100903.28;5075648;28;20103;-57
2022/08/25 02:13:52;;;;;;;2.25;1.40;;;;;;;20.01;66.52;100895.94;5075497;28;20037;-57
2022/08/25 02:16:24;;;;;;;2.28;2.08;;;;;;;19.90;67.33;100870.38;5075159;28;20036;-58
2022/08/25 02:18:51;;;;;;;2.00;1.90;;;;;;;20.00;67.18;100879.81;5058379;28;20027;-57
2022/08/25 02:21:17;;;;;;;1.50;1.20;;;;;;;20.02;67.14;100872.22;5057784;28;20063;-57
2022/08/25 02:23:43;;;;;;;1.90;1.27;;;;;;;20.00;66.58;100875.22;5075496;28;20032;-58
2022/08/25 02:26:10;;;;;;;1.38;1.27;;;;;;;20.00;67.26;100883.38;5074455;28;20154;-58
2022/08/25 02:28:36;;;;;;;1.33;1.23;;;;;;;19.97;67.29;100874.88;5076117;28;20029;-57
2022/08/25 02:31:04;;;;;;;1.70;1.60;;;;;;;19.95;67.41;100868.81;5075507;28;20028;-57
2022/08/25 02:33:30;;;;;;;1.40;1.30;;;;;;;19.87;67.53;100872.78;5075523;28;20035;-58
2022/08/25 02:35:58;;;;;;;1.60;1.50;;;;;;;19.90;67.58;100870.38;5075096;28;20095;-57
2022/08/25 02:38:26;;;;;;;2.22;2.05;;;;;;;19.90;67.41;100864.13;5074208;28;20048;-57
2022/08/25 02:40:54;;;;;;;2.67;1.77;;;;;;;19.87;67.22;100862.72;5074328;28;20040;-58
2022/08/25 02:43:20;;;;;;;3.13;1.52;;;;;;;19.80;67.43;100863.91;5074157;28;20055;-58
2022/08/25 02:45:46;;;;;;;1.83;1.27;;;;;;;19.80;67.65;100864.78;5074570;28;20041;-58
2022/08/25 02:48:12;;;;;;;1.95;1.85;;;;;;;19.83;67.77;100883.34;5057294;28;20029;-58
2022/08/25 02:50:38;;;;;;;3.67;2.45;;;;;;;19.81;68.22;100882.75;5074789;28;20393;-55
2022/08/25 02:53:04;;;;;;;2.15;2.05;;;;;;;19.78;68.28;100890.59;5072971;28;20514;-57
2022/08/25 02:55:30;;;;;;;4.65;2.80;;;;;;;19.77;68.48;100897.13;5074516;28;20104;-57
2022/08/25 02:57:56;;;;;;;6.47;3.38;;;;;;;19.70;68.57;100894.50;5074638;28;20082;-57
2022/08/25 03:00:22;;;;;;;2.83;2.47;;;;;;;19.70;68.19;100895.34;5074626;28;20039;-54
2022/08/25 03:02:47;;;;;;;4.32;1.73;;;;;;;19.69;68.71;100885.53;5073078;28;20111;-58
2022/08/25 03:05:14;;;;;;;2.70;1.92;;;;;;;19.68;68.17;100894.75;5074436;28;20028;-58
2022/08/25 03:07:40;;;;;;;2.58;2.38;;;;;;;19.63;68.66;100881.06;5074657;28;20032;-58
2022/08/25 03:10:10;;;;;;;2.83;2.15;;;;;;;19.56;68.67;100876.78;5074386;28;20373;-57
2022/08/25 03:12:36;;;;;;;2.47;2.28;;;;;;;19.61;68.74;100894.06;5073990;28;20111;-55
2022/08/25 03:15:02;;;;;;;2.15;1.95;;;;;;;19.54;69.22;100886.06;5072845;28;20497;-56
2022/08/25 03:17:28;;;;;;;5.47;2.08;;;;;;;19.64;68.54;100899.03;5073768;28;20469;-56
2022/08/25 03:19:54;;;;;;;2.35;2.15;;;;;;;19.57;68.80;100879.28;5073649;28;20036;-57
2022/08/25 03:22:20;;;;;;;2.85;2.20;;;;;;;19.60;68.68;100872.53;5073866;28;20028;-57
2022/08/25 03:24:46;;;;;;;2.13;1.90;;;;;;;19.60;68.70;100878.00;5074056;28;20028;-56
2022/08/25 03:27:12;;;;;;;2.40;1.80;;;;;;;19.63;68.97;100877.47;5055944;28;20465;-56
2022/08/25 03:29:41;;;;;;;2.53;2.20;;;;;;;19.60;69.05;100878.81;5073923;28;20050;-55
2022/08/25 03:32:08;;;;;;;5.97;2.25;;;;;;;19.61;68.77;100882.34;5074025;28;20450;-52
2022/08/25 03:34:33;;;;;;;2.60;2.40;;;;;;;19.40;69.10;100843.81;5073658;28;20473;-56
2022/08/25 03:36:59;;;;;;;2.13;2.03;;;;;;;19.50;69.08;100860.38;5073691;28;20079;-58
2022/08/25 03:39:26;;;;;;;4.45;2.17;;;;;;;19.53;69.22;100868.03;5073717;28;20039;-55
2022/08/25 03:41:53;;;;;;;3.53;1.95;;;;;;;19.33;69.51;100833.09;5074032;28;20032;-56
2022/08/25 03:44:20;;;;;;;3.08;2.88;;;;;;;19.47;69.86;100851.88;5073804;28;20052;-55
2022/08/25 03:46:50;;;;;;;2.90;2.25;;;;;;;19.33;70.04;100852.16;5073946;28;20032;-57
2022/08/25 03:49:21;;;;;;;6.40;2.65;;;;;;;19.36;70.63;100847.28;5073655;28;20030;-55
2022/08/25 03:51:48;;;;;;;1.85;1.75;;;;;;;19.29;70.77;100836.53;5059708;28;20044;-55
2022/08/25 03:54:18;;;;;;;2.15;2.05;;;;;;;19.33;70.40;100838.53;5076707;28;20029;-55
2022/08/25 03:56:44;;;;;;;2.60;1.80;;;;;;;19.29;71.15;100840.06;5059816;28;20123;-55
2022/08/25 03:59:11;;;;;;;5.20;3.05;;;;;;;19.30;70.71;100849.91;5078039;28;20440;-56
2022/08/25 04:01:38;;;;;;;1.70;1.60;;;;;;;19.25;69.97;100840.81;5077991;28;20028;-52
2022/08/25 04:04:06;;;;;;;1.80;1.60;;;;;;;19.33;70.17;100849.44;5076977;28;20100;-56
2022/08/25 04:06:32;;;;;;;4.05;2.50;;;;;;;19.33;70.46;100845.84;5076196;28;20035;-54
2022/08/25 04:08:58;;;;;;;3.75;3.45;;;;;;;19.34;70.27;100851.06;5077381;28;20531;-56
2022/08/25 04:11:25;;;;;;;3.17;2.92;;;;;;;19.33;70.42;100846.72;5077361;28;20051;-56
2022/08/25 04:13:55;;;;;;;2.22;2.13;;;;;;;19.32;70.21;100845.03;5076095;28;20028;-56
2022/08/25 04:16:24;;;;;;;2.45;2.25;;;;;;;19.29;70.19;100831.91;5059164;28;20024;-56
2022/08/25 04:18:53;;;;;;;1.60;1.50;;;;;;;19.31;70.41;100842.56;5077574;28;20036;-56
2022/08/25 04:21:20;;;;;;;1.67;1.58;;;;;;;19.31;70.20;100856.16;5042451;28;20039;-56
2022/08/25 04:23:47;;;;;;;2.33;2.13;;;;;;;19.25;70.66;100854.44;5077259;28;20063;-56
2022/08/25 04:26:18;;;;;;;2.70;2.50;;;;;;;19.27;70.88;100849.56;5059531;28;20056;-57
2022/08/25 04:28:44;;;;;;;2.10;1.90;;;;;;;19.26;70.49;100847.91;5059163;28;20040;-56
2022/08/25 04:31:13;;;;;;;4.63;2.92;;;;;;;19.30;70.51;100854.53;5077587;28;20028;-56
2022/08/25 04:33:40;;;;;;;5.60;2.75;;;;;;;19.29;70.67;100850.16;5076490;28;20404;-53
2022/08/25 04:36:10;;;;;;;5.78;2.92;;;;;;;19.27;70.76;100833.22;5076237;28;20024;-53
2022/08/25 04:38:37;;;;;;;8.98;2.42;;;;;;;19.28;70.38;100840.34;5077233;28;20028;-57
2022/08/25 04:41:06;;;;;;;1.83;1.73;;;;;;;19.27;70.54;100849.56;5059039;28;20039;-52
2022/08/25 04:43:33;;;;;;;3.38;1.92;;;;;;;19.25;70.48;100849.81;5077244;28;20469;-56
2022/08/25 04:46:03;;;;;;;1.65;1.55;;;;;;;19.23;70.50;100862.84;5077068;28;20086;-56
2022/08/25 04:48:30;;;;;;;2.40;2.20;;;;;;;19.13;70.87;100857.19;5059002;28;20077;-57
2022/08/25 04:50:55;;;;;;;1.85;1.75;;;;;;;19.17;71.08;100884.75;5076980;28;20111;-57
2022/08/25 04:53:21;;;;;;;1.60;1.30;;;;;;;19.17;70.91;100888.31;5076342;28;20450;-57
2022/08/25 04:55:47;;;;;;;4.65;1.75;;;;;;;19.22;70.94;100891.13;5076729;28;20025;-56
2022/08/25 04:58:15;;;;;;;2.15;1.88;;;;;;;19.12;70.73;100869.97;5076695;28;20039;-55
2022/08/25 05:00:42;;;;;;;1.83;1.63;;;;;;;19.16;71.14;100875.75;5076699;28;20469;-57
2022/08/25 05:03:08;;;;;;;3.20;2.42;;;;;;;19.15;71.55;100868.66;5075891;28;20071;-56
2022/08/25 05:05:36;;;;;;;2.15;1.98;;;;;;;19.19;71.09;100877.19;5077696;28;20021;-57
2022/08/25 05:08:04;;;;;;;1.77;1.67;;;;;;;19.19;71.33;100879.91;5076998;28;20477;-52
2022/08/25 05:10:29;;;;;;;9.80;2.30;;;;;;;19.14;71.26;100878.72;5059066;28;20028;-55
2022/08/25 05:12:55;;;;;;;3.05;2.75;;;;;;;19.11;71.89;100892.81;5059106;28;20036;-56
2022/08/25 05:18:07;;;;;;;2.20;1.70;;;;;;;19.02;71.83;100890.69;5061581;28;20063;-55
2022/08/25 05:20:36;;;;;;;2.30;1.75;;;;;;;19.08;71.35;100893.28;5076477;28;20441;-56
2022/08/25 05:23:02;;;;;;;4.07;2.40;;;;;;;18.99;71.89;100870.22;5076286;28;20040;-57
2022/08/25 05:25:28;;;;;;;3.55;1.67;;;;;;;19.07;71.47;100880.75;5076192;28;20150;-56
2022/08/25 05:27:54;;;;;;;3.00;2.50;;;;;;;18.92;71.59;100853.19;5076774;28;20064;-57
2022/08/25 05:30:20;;;;;;;3.75;1.90;;;;;;;19.07;71.78;100874.47;5075790;28;20033;-55
2022/08/25 05:32:46;;;;;;;2.28;2.10;;;;;;;19.03;72.06;100873.31;5075878;28;20033;-57
2022/08/25 05:35:12;;;;;;;2.95;2.70;;;;;;;19.01;72.28;100883.59;5058264;28;20048;-56
2022/08/25 05:37:37;;;;;;;2.08;1.98;;;;;;;19.05;71.98;100907.38;5075985;28;20051;-54
2022/08/25 05:40:06;;;;;;;3.35;2.58;;;;;;;19.05;72.41;100912.81;5058376;28;20035;-56
2022/08/25 05:42:32;;;;;;;2.60;2.40;;;;;;;19.10;72.42;100933.91;5076287;28;20040;-54
2022/08/25 05:44:57;;;;;;;4.10;3.80;;;;;;;18.99;73.54;100924.66;5075804;28;20032;-56
2022/08/25 05:47:23;;;;;;;4.82;2.47;;;;;;;19.00;74.18;100933.66;5058033;28;20037;-56
2022/08/25 05:49:49;;;;;;;3.30;3.00;;;;;;;18.90;74.85;100926.91;5057739;28;20029;-57
2022/08/25 05:52:15;;;;;;;2.40;1.95;;;;;;;18.86;73.57;100909.41;5057568;28;20101;-56
2022/08/25 05:54:41;;;;;;;4.20;3.80;;;;;;;18.92;73.53;100916.63;5075814;28;20471;-56
2022/08/25 05:57:08;;;;;;;2.20;2.00;;;;;;;18.88;73.79;100914.63;5074703;28;20115;-56
2022/08/25 05:59:34;;;;;;;2.63;2.40;;;;;;;18.88;73.33;100915.44;5075842;28;20028;-53
2022/08/25 06:04:45;;;;;;;2.30;2.10;;;;;;;18.99;73.42;100938.28;5060616;28;20032;-56
2022/08/25 06:07:12;;;;;;;3.38;2.17;;;;;;;18.96;73.42;100941.47;5075417;28;20032;-54
2022/08/25 06:09:38;;;;;;;5.70;3.22;;;;;;;18.91;73.54;100928.59;5074988;28;20442;-53
2022/08/25 06:12:05;;;;;;;9.07;4.30;;;;;;;18.94;73.51;100930.00;5078231;28;20033;-55
2022/08/25 06:14:31;;;;;;;2.70;2.50;;;;;;;18.93;73.46;100929.19;5064869;28;20074;-57
2022/08/25 06:16:57;;;;;;;5.40;4.07;;;;;;;18.85;74.16;100925.97;5065186;28;20032;-56
2022/08/25 06:19:23;;;;;;;2.60;2.35;;;;;;;18.86;73.97;100939.34;5081143;28;20039;-54
2022/08/25 06:21:52;;;;;;;2.67;2.45;;;;;;;18.74;74.25;100920.28;5078515;28;20419;-54
2022/08/25 06:24:18;;;;;;;4.43;3.15;;;;;;;18.72;74.34;100911.53;5076290;28;20029;-54
2022/08/25 06:26:44;;;;;;;5.05;3.60;;;;;;;18.81;74.54;100928.34;5058239;28;20074;-54
2022/08/25 06:29:12;;;;;;;5.63;3.53;;;;;;;18.80;74.85;100939.47;5075474;28;20493;-51
2022/08/25 06:31:38;;;;;;;3.05;2.80;;;;;;;18.77;74.53;100927.94;5075375;28;20033;-53
2022/08/25 06:34:05;;;;;;;3.88;3.55;;;;;;;18.70;74.59;100907.38;5075605;28;20073;-56
2022/08/25 06:36:31;;;;;;;6.75;5.00;;;;;;;18.74;74.76;100912.13;5075594;28;20108;-55
2022/08/25 06:38:57;;;;;;;4.40;4.00;;;;;;;18.69;75.02;100909.28;5074824;28;20521;-53
2022/08/25 06:41:23;;;;;;;4.50;2.83;;;;;;;18.75;75.03;100929.25;5074751;28;20157;-53
2022/08/25 06:43:49;;;;;;;4.55;3.78;;;;;;;18.74;75.01;100912.13;5073708;28;20029;-56
2022/08/25 06:46:18;;;;;;;9.75;6.32;;;;;;;18.77;74.90;100902.66;5074786;28;20036;-57
2022/08/25 06:48:43;;;;;;;7.20;5.95;;;;;;;18.78;75.10;100896.16;5056850;28;20052;-55
2022/08/25 06:51:13;;;;;;;8.80;4.75;;;;;;;18.60;75.11;100869.06;5074709;28;20071;-53
2022/08/25 06:53:39;;;;;;;7.78;5.40;;;;;;;18.78;74.98;100907.03;5074232;28;20127;-53
2022/08/25 06:56:05;;;;;;;5.03;3.58;;;;;;;18.75;74.95;100896.63;5074700;28;20440;-55
2022/08/25 06:58:31;;;;;;;6.40;3.47;;;;;;;18.76;75.28;100904.53;5074299;28;20043;-53
2022/08/25 07:01:06;;;;;;;5.35;3.83;;;;;;;18.73;75.05;100906.91;5056525;28;20075;-53
2022/08/25 07:03:32;;;;;;;6.97;5.25;;;;;;;18.79;75.24;100921.47;5074487;28;20051;-52
2022/08/25 07:05:58;;;;;;;7.03;4.65;;;;;;;18.77;75.39;100917.06;5073925;28;20033;-57
2022/08/25 07:08:24;;;;;;;3.83;3.53;;;;;;;18.81;75.42;100935.69;5074215;28;20029;-56
2022/08/25 07:10:50;;;;;;;6.88;4.65;;;;;;;18.79;75.49;100922.28;5056369;28;20032;-54
2022/08/25 07:13:16;;;;;;;6.70;4.97;;;;;;;18.66;75.88;100898.03;5072912;28;20029;-57
2022/08/25 07:15:42;;;;;;;4.28;3.85;;;;;;;18.73;75.82;100907.72;5074088;28;20058;-57
2022/08/25 07:18:10;;;;;;;4.15;3.55;;;;;;;18.67;75.88;100896.97;5055907;28;20040;-57
2022/08/25 07:20:37;;;;;;;5.82;4.97;;;;;;;18.68;75.91;100918.50;5073972;28;20129;-57
2022/08/25 07:23:03;;;;;;;4.38;3.97;;;;;;;18.64;75.91;100928.19;5074363;28;20028;-54
2022/08/25 07:25:29;;;;;;;7.63;5.60;;;;;;;18.63;76.22;100937.44;5073444;28;20538;-56
2022/08/25 07:27:55;;;;;;;4.15;3.75;;;;;;;18.57;76.50;100944.66;5072617;28;20035;-56
2022/08/25 07:30:22;;;;;;;4.65;4.25;;;;;;;18.55;76.44;100951.38;5074100;28;20109;-57
2022/08/25 07:32:47;;;;;;;4.20;3.70;;;;;;;18.56;76.22;100942.97;5074021;28;20113;-56
2022/08/25 07:35:14;;;;;;;5.15;4.65;;;;;;;18.52;76.06;100946.41;5072483;28;20478;-55
2022/08/25 07:37:41;;;;;;;3.80;3.50;;;;;;;18.52;76.34;100960.00;5073902;28;20035;-57
2022/08/25 07:40:09;;;;;;;2.85;2.60;;;;;;;18.45;76.05;100960.09;5055453;28;20441;-57
2022/08/25 07:42:36;;;;;;;5.13;3.13;;;;;;;18.48;75.58;100961.53;5073682;28;20032;-56
2022/08/25 07:45:04;;;;;;;3.67;1.83;;;;;;;18.46;75.80;100972.66;5073984;28;20044;-55
2022/08/25 07:47:30;;;;;;;4.28;1.90;;;;;;;18.46;75.52;100974.53;5039101;28;20028;-57
2022/08/25 07:49:56;;;;;;;6.38;2.25;;;;;;;18.49;75.37;100980.34;5074030;28;20028;-57
2022/08/25 07:52:22;;;;;;;2.08;1.67;;;;;;;18.48;75.20;100972.41;5055200;28;20400;-56
2022/08/25 07:54:48;;;;;;;2.97;2.10;;;;;;;18.44;75.13;100968.50;5073954;28;20021;-57
2022/08/25 07:57:14;;;;;;;3.08;2.40;;;;;;;18.51;75.68;100989.09;5073531;28;20075;-57
2022/08/25 07:59:41;;;;;;;3.33;2.13;;;;;;;18.45;75.58;100978.31;5073643;28;20543;-58
2022/08/25 08:02:10;;;;;;;3.38;2.47;;;;;;;18.49;75.52;100984.94;5073461;28;20033;-57
2022/08/25 08:04:36;;;;;;;5.63;3.10;;;;;;;18.48;75.32;100986.84;5038748;28;20021;-57
2022/08/25 08:07:03;;;;;;;5.07;2.63;;;;;;;18.43;75.26;100977.72;5055935;28;20036;-56
2022/08/25 08:09:30;;;;;;;3.05;2.50;;;;;;;18.44;75.52;100998.41;5073658;28;20563;-57
2022/08/25 08:11:56;;;;;;;2.45;2.25;;;;;;;18.43;75.40;101003.03;5073496;28;20025;-57
2022/08/25 08:14:22;;;;;;;6.28;3.08;;;;;;;18.41;75.68;101004.34;5072548;28;20025;-55
2022/08/25 08:16:48;;;;;;;4.25;3.30;;;;;;;18.38;75.79;101001.00;5073544;28;20052;-55
2022/08/25 08:19:16;;;;;;;6.65;3.67;;;;;;;18.34;76.42;100991.66;5072620;28;20032;-55
2022/08/25 08:21:42;;;;;;;4.97;3.05;;;;;;;18.39;76.29;100977.38;5073254;28;20033;-57
2022/08/25 08:24:07;;;;;;;3.80;3.00;;;;;;;18.43;75.92;100969.56;5073334;28;20028;-57
2022/08/25 08:26:33;;;;;;;3.70;2.60;;;;;;;18.47;75.60;100960.69;5073303;28;20037;-56
2022/08/25 08:29:00;;;;;;;3.10;2.78;;;;;;;18.50;75.30;100934.94;5073250;28;20043;-57
2022/08/25 08:31:27;;;;;;;4.20;3.05;;;;;;;18.46;75.43;100901.09;5073665;28;20082;-57
2022/08/25 08:33:54;;;;;;;3.67;3.38;;;;;;;18.50;75.54;100902.31;5073553;28;20029;-57
2022/08/25 08:36:21;;;;;;;2.92;2.67;;;;;;;18.38;75.91;100884.06;5073044;28;20021;-55
2022/08/25 08:38:47;;;;;;;4.43;3.13;;;;;;;18.37;75.70;100890.56;5076029;28;20124;-55
2022/08/25 08:44:52;;;;;;;5.10;2.20;;;;;;;18.38;75.94;100930.28;5061902;28;20036;-57
2022/08/25 08:47:44;;;;;;;2.30;2.10;;;;;;;18.41;76.03;100936.34;5058989;28;20111;-56
2022/08/25 08:50:33;;;;;;;2.17;1.38;;;;;;;18.46;75.88;100960.94;5061461;28;20040;-57
2022/08/25 08:53:07;;;;;;;4.70;2.15;;;;;;;18.40;75.87;100957.25;5055429;28;20060;-56
2022/08/25 08:55:41;;;;;;;5.07;2.33;;;;;;;18.38;75.75;100971.06;5055471;28;20509;-57
2022/08/25 08:58:09;;;;;;;;;;;;;;;18.37;76.72;100982.22;5056983;28;20037;-56
2022/08/25 09:00:40;;;;;;;4.15;1.42;;;;;;;18.36;75.55;100975.94;5056803;28;19908;-56
2022/08/25 09:03:13;;;;;;;3.45;1.77;;;;;;;18.38;75.56;100973.81;5056564;28;20033;-57
2022/08/25 09:05:47;;;;;;;2.53;1.70;;;;;;;18.37;75.82;100968.63;5071739;28;20033;-57
2022/08/25 09:08:15;;;;;;;1.45;1.30;;;;;;;18.35;75.60;100979.72;5056658;28;20478;-55
2022/08/25 09:11:00;;;;;;;4.03;2.10;;;;;;;18.35;75.47;100996.03;5056664;28;20432;-57
2022/08/25 09:13:57;;;;;;;1.92;1.30;;;;;;;18.27;75.53;101000.97;5056007;28;20417;-57
2022/08/25 09:16:53;;;;;;;3.22;1.77;;;;;;;18.32;75.67;101012.81;5070916;28;20112;-57
2022/08/25 09:19:47;;;;;;;3.22;0.95;;;;;;;18.32;75.58;100972.03;5056511;28;20021;-56
2022/08/25 09:22:46;;;;;;;2.42;1.33;;;;;;;18.40;75.77;100970.84;5042503;28;20032;-57
2022/08/25 09:25:44;;;;;;;1.77;1.52;;;;;;;18.40;75.73;100991.78;5055717;28;20087;-57
2022/08/25 09:28:20;;;;;;;2.83;1.77;;;;;;;18.35;75.70;100987.06;5068560;28;20048;-56
2022/08/25 09:30:56;;;;;;;1.85;1.50;;;;;;;18.43;75.57;100983.19;5055573;28;20029;-56
2022/08/25 09:33:25;;;;;;;1.27;1.17;;;;;;;18.36;75.78;100986.81;5058233;28;20029;-56
2022/08/25 09:35:53;;;;;;;2.88;1.02;;;;;;;18.47;76.11;100989.78;5056632;28;20104;-57
2022/08/25 09:38:20;;;;;;;2.28;1.38;;;;;;;18.51;76.13;100972.75;5056304;28;20082;-56
2022/08/25 09:40:48;;;;;;;2.47;1.90;;;;;;;18.54;75.56;100947.00;5055420;28;20033;-56
2022/08/25 09:43:37;;;;;;;2.55;1.83;;;;;;;18.65;75.45;100956.25;5057165;28;20037;-55
2022/08/25 09:46:12;;;;;;;1.83;1.73;;;;;;;18.69;75.20;100968.31;5069394;28;20397;-57
2022/08/25 09:48:46;;;;;;;1.77;1.15;;;;;;;18.80;75.24;100969.38;5056734;28;20082;-55
2022/08/25 09:51:18;;;;;;;1.60;1.50;;;;;;;18.85;75.63;100970.38;5071870;28;20039;-56
2022/08/25 09:53:52;;;;;;;3.47;1.63;;;;;;;18.85;75.72;100958.63;5074871;28;20044;-57
2022/08/25 09:56:21;;;;;;;2.35;2.00;;;;;;;19.01;75.29;100959.81;5059756;28;20346;-55
2022/08/25 09:58:47;;;;;;;1.65;1.20;;;;;;;19.12;75.02;100958.97;5080167;28;20036;-57
2022/08/25 10:01:18;;;;;;;1.65;1.50;;;;;;;19.22;74.67;100972.81;5063036;28;20032;-57
2022/08/25 10:04:03;;;;;;;2.40;1.70;;;;;;;19.21;74.56;100967.63;5061744;28;20119;-55
2022/08/25 10:06:36;;;;;;;;;;;;;;;19.27;74.74;100967.47;5080324;28;20039;-55
2022/08/25 10:09:05;;;;;;;2.15;1.75;;;;;;;19.22;74.33;100969.25;5077173;28;20346;-57
2022/08/25 10:11:40;;;;;;;0.98;0.98;;;;;;;19.28;74.29;100971.88;5076586;28;20037;-57
2022/08/25 10:14:18;;;;;;;2.40;1.42;;;;;;;19.32;74.20;100953.97;5076703;28;20039;-56
2022/08/25 10:16:45;;;;;;;2.00;1.70;;;;;;;19.34;74.24;100951.03;5075518;28;20044;-56
2022/08/25 10:19:24;;;;;;;2.20;1.77;;;;;;;19.19;75.67;100942.53;5074127;28;20106;-57
2022/08/25 10:22:10;;;;;;;3.85;1.83;;;;;;;19.15;76.29;100937.56;5075347;28;20036;-56
2022/08/25 10:24:38;;;;;;;2.00;1.83;;;;;;;19.16;75.83;100924.75;5075264;28;20086;-56
2022/08/25 10:27:21;;;;;;;1.40;1.30;;;;;;;19.23;75.35;100933.63;5074809;28;20040;-57
2022/08/25 10:30:14;;;;;;;1.48;1.38;;;;;;;19.28;74.88;100949.28;5057312;28;20051;-58
2022/08/25 10:32:56;;;;;;;1.98;1.38;;;;;;;19.26;74.63;100956.81;5074302;28;20453;-58
2022/08/25 10:35:28;;;;;;;1.35;1.25;;;;;;;19.27;74.99;100955.78;5074549;28;20059;-57
2022/08/25 10:38:22;;;;;;;3.90;1.35;;;;;;;19.21;74.73;100938.50;5075075;28;20036;-57
2022/08/25 10:41:27;;;;;;;1.02;0.88;;;;;;;19.28;74.62;100944.63;5074073;28;20412;-58
2022/08/25 10:47:50;;;;;;;1.17;1.15;;;;;;;19.20;75.07;100947.72;5059988;28;20036;-56
2022/08/25 10:50:39;;;;;;;1.20;1.10;;;;;;;19.23;74.72;100946.44;5057247;28;20040;-56
2022/08/25 10:53:26;;;;;;;1.33;0.93;;;;;;;19.25;74.38;100947.00;5073359;28;20055;-57
2022/08/25 10:56:22;;;;;;;0.98;0.90;;;;;;;19.26;74.50;100945.94;5073959;28;20028;-58
2022/08/25 10:59:00;;;;;;;1.30;1.20;;;;;;;19.32;74.39;100945.81;5056101;28;20412;-57
2022/08/25 11:02:02;;;;;;;1.38;1.27;;;;;;;19.32;74.51;100934.09;5074566;28;20083;-56
2022/08/25 11:04:37;;;;;;;1.75;1.52;;;;;;;19.39;74.63;100928.50;5073402;28;20542;-58
2022/08/25 11:07:16;;;;;;;1.80;1.50;;;;;;;19.45;74.09;100920.19;5074706;28;20369;-58
2022/08/25 11:09:46;;;;;;;1.67;1.48;;;;;;;19.36;74.85;100896.31;5074326;28;20393;-56
2022/08/25 11:12:28;;;;;;;1.35;1.25;;;;;;;19.41;75.07;100896.41;5073109;28;20427;-58
2022/08/25 11:15:01;;;;;;;1.88;1.45;;;;;;;19.33;75.58;100876.66;5074438;28;20357;-57
2022/08/25 11:17:52;;;;;;;2.40;2.20;;;;;;;19.29;76.17;100847.41;5074075;28;20036;-55
2022/08/25 11:20:22;;;;;;;5.60;3.75;;;;;;;19.23;76.06;100827.44;5074446;28;20496;-56
2022/08/25 11:23:05;;;;;;;4.03;3.72;;;;;;;19.25;76.14;100825.28;5074307;28;20033;-55
2022/08/25 11:25:41;;;;;;;4.63;4.32;;;;;;;19.29;76.82;100812.03;5056450;28;20089;-56
2022/08/25 11:28:17;;;;;;;3.10;2.90;;;;;;;19.09;77.30;100802.41;5074812;28;20024;-55
2022/08/25 11:30:43;;;;;;;2.20;2.10;;;;;;;19.08;77.85;100814.34;5056763;28;20029;-55
2022/08/25 11:33:18;;;;;;;3.40;3.20;;;;;;;18.99;77.99;100817.69;5074243;28;20035;-55
2022/08/25 11:35:50;;;;;;;3.85;3.55;;;;;;;18.95;79.02;100829.06;5074139;28;20536;-56
2022/08/25 11:38:32;;;;;;;2.65;2.45;;;;;;;18.94;78.31;100830.13;5055966;28;20032;-58
2022/08/25 11:41:14;;;;;;;5.85;3.13;;;;;;;19.20;77.73;100881.53;5056072;28;20033;-58
2022/08/25 11:43:58;;;;;;;2.53;2.42;;;;;;;19.16;77.26;100905.69;5055887;28;20119;-57
2022/08/25 11:46:56;;;;;;;2.83;2.63;;;;;;;19.08;77.77;100906.09;5073703;28;20527;-58
2022/08/25 11:49:50;;;;;;;3.20;2.63;;;;;;;19.09;76.99;100926.78;5058926;28;20072;-56
2022/08/25 11:52:54;;;;;;;3.03;2.83;;;;;;;19.05;76.71;100937.31;5072620;28;20051;-57
2022/08/25 11:55:45;;;;;;;2.60;2.50;;;;;;;19.09;76.29;100951.28;5073280;28;20044;-57
2022/08/25 11:58:35;;;;;;;1.70;1.60;;;;;;;19.07;76.35;100953.41;5074055;28;20571;-56